createdAt,value
2019-05-20T00:00:32.428Z,8.33
2019-05-20T00:03:02.870Z,7.87
2019-05-20T00:05:32.463Z,8.03
2019-05-20T00:08:03.192Z,7.20
2019-05-20T00:10:32.690Z,7.20
2019-05-20T00:13:02.505Z,7.58
2019-05-20T00:15:32.204Z,7.85
2019-05-20T00:18:01.687Z,7.63
2019-05-20T00:20:31.192Z,7.70
2019-05-20T00:23:00.734Z,7.85
2019-05-20T00:25:30.298Z,8.03
2019-05-20T00:27:59.774Z,6.70
2019-05-20T00:30:30.255Z,6.92
2019-05-20T00:32:59.739Z,7.97
2019-05-20T00:35:29.834Z,8.20
2019-05-20T00:37:59.319Z,7.25
2019-05-20T00:40:28.811Z,7.90
2019-05-20T00:42:58.288Z,8.33
2019-05-20T00:45:27.783Z,9.30
2019-05-20T00:47:57.263Z,8.10
2019-05-20T00:50:27.737Z,8.30
2019-05-20T00:52:57.333Z,8.90
2019-05-20T00:55:29.360Z,7.80
2019-05-20T00:57:59.317Z,7.23
2019-05-20T01:00:28.824Z,7.60
2019-05-20T01:02:58.379Z,8.13
2019-05-20T01:05:28.003Z,7.27
2019-05-20T01:07:57.559Z,7.50
2019-05-20T01:10:27.831Z,8.47
2019-05-20T01:12:57.335Z,7.03
2019-05-20T01:15:26.908Z,7.42
2019-05-20T01:17:56.402Z,7.47
2019-05-20T01:20:25.908Z,7.00
2019-05-20T01:22:55.444Z,8.40
2019-05-20T01:25:26.006Z,6.70
2019-05-20T01:27:55.529Z,7.80
2019-05-20T01:30:25.387Z,7.30
2019-05-20T01:32:54.892Z,8.70
2019-05-20T01:35:24.424Z,7.30
2019-05-20T01:37:53.949Z,8.33
2019-05-20T01:40:23.637Z,8.20
2019-05-20T01:42:53.682Z,8.93
2019-05-20T01:45:23.220Z,7.62
2019-05-20T01:47:52.755Z,8.10
2019-05-20T01:50:22.236Z,8.20
2019-05-20T01:52:51.749Z,8.23
2019-05-20T01:55:21.260Z,7.50
2019-05-20T01:57:50.756Z,8.10
2019-05-20T02:00:22.060Z,7.40
2019-05-20T02:02:51.565Z,7.23
2019-05-20T02:05:22.494Z,7.60
2019-05-20T02:07:52.080Z,8.70
2019-05-20T02:10:22.234Z,7.40
2019-05-20T02:12:52.694Z,7.93
2019-05-20T02:15:28.845Z,7.40
2019-05-20T02:17:58.501Z,7.62
2019-05-20T02:20:28.146Z,7.80
2019-05-20T02:23:14.490Z,6.97
2019-05-20T02:25:46.857Z,8.53
2019-05-20T02:28:17.533Z,7.83
2019-05-20T02:30:47.014Z,7.70
2019-05-20T02:33:16.738Z,7.85
2019-05-20T02:35:46.235Z,8.60
2019-05-20T02:38:15.746Z,7.80
2019-05-20T02:40:45.356Z,8.93
2019-05-20T02:43:15.986Z,8.53
2019-05-20T02:45:45.490Z,7.60
2019-05-20T02:48:15.022Z,7.77
2019-05-20T02:50:44.556Z,7.83
2019-05-20T02:53:14.045Z,8.30
2019-05-20T02:55:43.586Z,8.10
2019-05-20T02:58:13.128Z,8.33
2019-05-20T03:00:42.660Z,8.00
2019-05-20T03:03:12.143Z,8.67
2019-05-20T03:05:41.706Z,8.33
2019-05-20T03:08:11.204Z,8.43
2019-05-20T03:10:40.745Z,8.60
2019-05-20T03:13:10.227Z,8.23
2019-05-20T03:15:39.758Z,8.10
2019-05-20T03:18:09.218Z,8.20
2019-05-20T03:20:38.719Z,9.40
2019-05-20T03:23:08.288Z,8.63
2019-05-20T03:25:37.807Z,9.30
2019-05-20T03:28:07.287Z,9.05
2019-05-20T03:30:36.808Z,9.23
2019-05-20T03:33:06.282Z,9.20
2019-05-20T03:35:36.458Z,9.40
2019-05-20T03:38:05.972Z,9.60
2019-05-20T03:40:35.498Z,10.82
2019-05-20T03:43:04.968Z,10.50
2019-05-20T03:45:35.455Z,9.55
2019-05-20T03:48:05.073Z,10.10
2019-05-20T03:50:34.609Z,9.43
2019-05-20T03:53:04.232Z,10.10
2019-05-20T03:55:33.722Z,9.50
2019-05-20T03:58:03.246Z,8.47
2019-05-20T04:00:46.346Z,8.97
2019-05-20T04:03:16.530Z,7.77
2019-05-20T04:05:46.101Z,8.40
2019-05-20T04:08:15.674Z,7.03
2019-05-20T04:10:45.221Z,8.47
2019-05-20T04:13:14.705Z,8.33
2019-05-20T04:15:44.192Z,6.93
2019-05-20T04:18:13.678Z,9.07
2019-05-20T04:20:43.182Z,8.47
2019-05-20T04:23:12.705Z,8.47
2019-05-20T04:25:42.287Z,7.87
2019-05-20T04:28:11.733Z,7.33
2019-05-20T04:30:41.460Z,8.77
2019-05-20T04:33:11.027Z,8.60
2019-05-20T04:35:40.657Z,7.67
2019-05-20T04:38:10.174Z,8.10
2019-05-20T04:40:39.994Z,7.58
2019-05-20T04:43:09.552Z,8.63
2019-05-20T04:45:39.112Z,9.10
2019-05-20T04:48:08.593Z,9.38
2019-05-20T04:50:38.092Z,8.90
2019-05-20T04:53:07.797Z,9.10
2019-05-20T04:55:37.317Z,10.43
2019-05-20T04:58:06.878Z,10.32
2019-05-20T05:00:49.961Z,10.87
2019-05-20T05:03:19.456Z,11.07
2019-05-20T05:05:50.071Z,10.23
2019-05-20T05:08:19.797Z,11.90
2019-05-20T05:10:49.710Z,11.83
2019-05-20T05:13:19.297Z,15.05
2019-05-20T05:15:48.962Z,14.27
2019-05-20T05:18:18.641Z,15.93
2019-05-20T05:20:48.254Z,15.40
2019-05-20T05:23:17.887Z,15.30
2019-05-20T05:25:47.470Z,17.67
2019-05-20T05:28:17.032Z,16.57
2019-05-20T05:30:46.979Z,15.90
2019-05-20T05:33:16.539Z,16.90
2019-05-20T05:35:53.289Z,16.43
2019-05-20T05:38:17.440Z,17.67
2019-05-20T05:40:47.138Z,16.87
2019-05-20T05:43:16.634Z,17.57
2019-05-20T05:45:46.144Z,17.40
2019-05-20T05:48:15.769Z,16.23
2019-05-20T05:50:45.273Z,17.03
2019-05-20T05:53:14.782Z,15.60
2019-05-20T05:55:44.289Z,17.20
2019-05-20T05:58:14.752Z,16.97
2019-05-20T06:00:44.411Z,14.53
2019-05-20T06:03:13.914Z,16.90
2019-05-20T06:05:43.512Z,16.43
2019-05-20T06:08:13.053Z,15.40
2019-05-20T06:10:42.535Z,15.13
2019-05-20T06:13:12.060Z,15.00
2019-05-20T06:15:41.538Z,15.58
2019-05-20T06:18:11.117Z,14.97
2019-05-20T06:20:40.708Z,15.13
2019-05-20T06:23:10.270Z,13.72
2019-05-20T06:25:39.723Z,15.00
2019-05-20T06:28:09.234Z,14.98
2019-05-20T06:30:41.428Z,15.17
2019-05-20T06:33:11.234Z,13.60
2019-05-20T06:35:40.785Z,15.17
2019-05-20T06:38:21.774Z,14.20
2019-05-20T06:40:51.347Z,14.10
2019-05-20T06:43:20.921Z,14.87
2019-05-20T06:45:50.413Z,14.50
2019-05-20T06:48:19.971Z,13.73
2019-05-20T06:50:49.477Z,13.37
2019-05-20T06:53:18.996Z,13.43
2019-05-20T06:55:48.484Z,13.28
2019-05-20T06:58:18.190Z,14.13
2019-05-20T07:00:47.693Z,14.43
2019-05-20T07:03:17.641Z,14.85
2019-05-20T07:05:47.199Z,14.63
2019-05-20T07:08:16.734Z,13.17
2019-05-20T07:10:46.241Z,13.63
2019-05-20T07:13:16.441Z,12.90
2019-05-20T07:15:47.018Z,14.67
2019-05-20T07:18:16.528Z,15.78
2019-05-20T07:20:46.038Z,15.10
2019-05-20T07:23:15.544Z,14.43
2019-05-20T07:25:45.038Z,13.67
2019-05-20T07:28:14.619Z,15.05
2019-05-20T07:30:44.540Z,13.80
2019-05-20T07:33:14.065Z,13.27
2019-05-20T07:35:43.692Z,13.40
2019-05-20T07:38:13.302Z,14.78
2019-05-20T07:40:42.809Z,15.78
2019-05-20T07:43:12.323Z,13.73
2019-05-20T07:45:42.079Z,16.40
2019-05-20T07:48:11.668Z,15.65
2019-05-20T07:50:42.271Z,15.73
2019-05-20T07:53:12.558Z,14.60
2019-05-20T07:55:51.394Z,14.53
2019-05-20T07:58:22.438Z,15.50
2019-05-20T08:00:52.078Z,16.50
2019-05-20T08:03:21.663Z,15.00
2019-05-20T08:05:51.154Z,15.73
2019-05-20T08:08:20.734Z,14.47
2019-05-20T08:10:50.279Z,13.80
2019-05-20T08:13:19.798Z,13.73
2019-05-20T08:15:49.441Z,15.87
2019-05-20T08:18:20.231Z,13.93
2019-05-20T08:20:50.095Z,13.83
2019-05-20T08:23:19.679Z,13.97
2019-05-20T08:25:49.172Z,13.10
2019-05-20T08:28:18.690Z,14.13
2019-05-20T08:30:48.257Z,14.50
2019-05-20T08:33:17.787Z,14.93
2019-05-20T08:35:47.301Z,11.90
2019-05-20T08:38:17.194Z,13.23
2019-05-20T08:40:48.723Z,13.40
2019-05-20T08:43:17.989Z,13.53
2019-05-20T08:45:47.478Z,13.03
2019-05-20T08:48:16.989Z,13.83
2019-05-20T08:50:46.483Z,13.33
2019-05-20T08:53:15.989Z,13.47
2019-05-20T08:55:45.608Z,13.30
2019-05-20T08:58:15.838Z,13.60
2019-05-20T09:00:45.403Z,27.47
2019-05-20T09:03:14.893Z,15.00
2019-05-20T09:05:44.393Z,14.30
2019-05-20T09:08:13.888Z,12.53
2019-05-20T09:10:43.403Z,12.43
2019-05-20T09:13:12.979Z,12.40
2019-05-20T09:15:45.343Z,13.00
2019-05-20T09:18:13.982Z,11.48
2019-05-20T09:20:43.658Z,12.70
2019-05-20T09:23:13.157Z,12.93
2019-05-20T09:25:42.771Z,13.23
2019-05-20T09:28:13.248Z,11.33
2019-05-20T09:30:42.874Z,11.57
2019-05-20T09:33:12.452Z,12.13
2019-05-20T09:35:42.122Z,9.83
2019-05-20T09:38:20.102Z,10.93
2019-05-20T09:40:47.228Z,10.37
2019-05-20T09:43:16.793Z,11.43
2019-05-20T09:45:46.385Z,10.97
2019-05-20T09:48:16.166Z,10.70
2019-05-20T09:50:45.745Z,11.97
2019-05-20T09:53:15.240Z,10.93
2019-05-20T09:55:44.748Z,12.00
2019-05-20T09:58:14.239Z,10.10
2019-05-20T10:00:43.826Z,11.20
2019-05-20T10:03:13.323Z,11.63
2019-05-20T10:05:42.914Z,10.67
2019-05-20T10:08:12.426Z,11.10
2019-05-20T10:10:42.043Z,12.05
2019-05-20T10:13:11.591Z,11.77
2019-05-20T10:15:41.103Z,11.05
2019-05-20T10:18:10.643Z,10.32
2019-05-20T10:20:40.224Z,12.37
2019-05-20T10:23:09.706Z,11.37
2019-05-20T10:25:39.301Z,10.50
2019-05-20T10:28:08.923Z,11.07
2019-05-20T10:30:38.504Z,9.63
2019-05-20T10:33:10.544Z,10.67
2019-05-20T10:35:39.225Z,9.23
2019-05-20T10:38:08.728Z,9.98
2019-05-20T10:40:38.462Z,9.90
2019-05-20T10:43:07.999Z,10.20
2019-05-20T10:45:37.596Z,9.90
2019-05-20T10:48:08.906Z,10.17
2019-05-20T10:50:38.762Z,9.13
2019-05-20T10:53:08.259Z,9.27
2019-05-20T10:55:37.821Z,9.50
2019-05-20T10:58:07.322Z,10.73
2019-05-20T11:00:36.815Z,9.57
2019-05-20T11:03:06.388Z,9.38
2019-05-20T11:05:35.877Z,10.07
2019-05-20T11:08:05.468Z,9.07
2019-05-20T11:10:34.961Z,9.88
2019-05-20T11:13:04.545Z,9.75
2019-05-20T11:15:34.044Z,10.37
2019-05-20T11:18:04.100Z,10.83
2019-05-20T11:20:33.591Z,9.75
2019-05-20T11:23:03.083Z,9.70
2019-05-20T11:25:35.861Z,8.50
2019-05-20T11:28:05.461Z,9.43
2019-05-20T11:30:35.017Z,8.80
2019-05-20T11:33:04.615Z,8.80
2019-05-20T11:35:34.118Z,8.90
2019-05-20T11:38:04.526Z,9.33
2019-05-20T11:40:33.979Z,8.40
2019-05-20T11:43:03.983Z,9.10
2019-05-20T11:45:33.473Z,9.40
2019-05-20T11:48:03.005Z,9.20
2019-05-20T11:50:32.610Z,8.93
2019-05-20T11:53:02.208Z,7.93
2019-05-20T11:55:31.706Z,7.73
2019-05-20T11:58:15.470Z,7.60
2019-05-20T12:00:33.141Z,7.50
2019-05-20T12:03:02.676Z,7.87
2019-05-20T12:05:32.274Z,8.10
2019-05-20T12:08:01.763Z,6.67
2019-05-20T12:10:31.245Z,7.73
2019-05-20T12:13:00.749Z,7.70
2019-05-20T12:15:31.202Z,7.57
2019-05-20T12:18:00.701Z,7.67
2019-05-20T12:20:30.201Z,7.90
2019-05-20T12:23:00.101Z,8.03
2019-05-20T12:25:30.362Z,9.15
2019-05-20T12:28:00.276Z,7.67
2019-05-20T12:30:30.258Z,8.25
2019-05-20T12:33:17.949Z,7.25
2019-05-20T12:35:31.666Z,7.70
2019-05-20T12:38:01.578Z,8.40
2019-05-20T12:40:31.055Z,8.57
2019-05-20T12:43:00.559Z,7.40
2019-05-20T12:45:31.139Z,8.60
2019-05-20T12:48:01.536Z,7.20
2019-05-20T12:50:31.093Z,6.70
2019-05-20T12:53:02.339Z,8.10
2019-05-20T12:55:31.919Z,6.40
2019-05-20T12:58:01.417Z,7.07
2019-05-20T13:00:31.120Z,6.78
2019-05-20T13:03:01.425Z,6.87
2019-05-20T13:05:31.137Z,6.12
2019-05-20T13:08:01.455Z,5.95
2019-05-20T13:10:32.509Z,5.80
2019-05-20T13:13:03.315Z,6.47
2019-05-20T13:15:32.861Z,7.17
2019-05-20T13:18:02.380Z,6.57
2019-05-20T13:20:31.910Z,7.53
2019-05-20T13:23:01.829Z,7.07
2019-05-20T13:25:31.731Z,6.60
2019-05-20T13:28:01.463Z,6.45
2019-05-20T13:30:31.453Z,6.30
2019-05-20T13:33:01.861Z,6.67
2019-05-20T13:35:31.472Z,6.15
2019-05-20T13:38:01.420Z,6.55
2019-05-20T13:40:45.982Z,6.27
2019-05-20T13:43:02.878Z,5.87
2019-05-20T13:45:32.400Z,6.43
2019-05-20T13:48:02.849Z,6.67
2019-05-20T13:50:32.341Z,6.03
2019-05-20T13:53:02.235Z,6.60
2019-05-20T13:55:31.718Z,6.00
2019-05-20T13:58:01.376Z,6.10
2019-05-20T14:00:31.484Z,6.22
2019-05-20T14:03:01.453Z,6.23
2019-05-20T14:05:31.605Z,6.50
2019-05-20T14:08:01.486Z,6.15
2019-05-20T14:10:31.983Z,5.75
2019-05-20T14:13:02.639Z,6.08
2019-05-20T14:15:32.184Z,6.07
2019-05-20T14:18:02.715Z,6.58
2019-05-20T14:20:32.227Z,6.43
2019-05-20T14:23:02.239Z,6.03
2019-05-20T14:25:32.185Z,7.08
2019-05-20T14:28:02.195Z,5.80
2019-05-20T14:30:32.147Z,7.08
2019-05-20T14:33:03.133Z,6.30
2019-05-20T14:35:32.745Z,6.80
2019-05-20T14:38:03.380Z,6.27
2019-05-20T14:40:32.883Z,6.70
2019-05-20T14:43:02.715Z,6.30
2019-05-20T14:45:32.295Z,6.00
2019-05-20T14:48:02.438Z,5.72
2019-05-20T14:50:32.133Z,6.12
2019-05-20T14:53:02.463Z,7.40
2019-05-20T14:55:41.821Z,7.40
2019-05-20T14:58:03.521Z,6.77
2019-05-20T15:00:33.054Z,6.73
2019-05-20T15:03:02.546Z,5.80
2019-05-20T15:05:32.395Z,6.28
2019-05-20T15:08:02.308Z,6.40
2019-05-20T15:10:32.413Z,6.10
2019-05-20T15:13:03.113Z,5.85
2019-05-20T15:15:32.884Z,5.70
2019-05-20T15:18:02.413Z,5.80
2019-05-20T15:20:32.371Z,6.00
2019-05-20T15:23:02.880Z,6.42
2019-05-20T15:25:32.430Z,6.10
2019-05-20T15:28:02.389Z,6.78
2019-05-20T15:30:32.550Z,6.70
2019-05-20T15:33:03.173Z,6.50
2019-05-20T15:35:32.748Z,6.20
2019-05-20T15:38:02.441Z,6.07
2019-05-20T15:40:32.476Z,6.35
2019-05-20T15:43:02.843Z,6.20
2019-05-20T15:45:32.461Z,6.47
2019-05-20T15:48:03.039Z,5.65
2019-05-20T15:50:32.548Z,6.70
2019-05-20T15:53:03.398Z,7.05
2019-05-20T15:55:33.941Z,6.30
2019-05-20T15:58:03.820Z,6.50
2019-05-20T16:00:33.332Z,6.33
2019-05-20T16:03:02.950Z,6.60
2019-05-20T16:05:32.554Z,6.42
2019-05-20T16:08:03.091Z,5.83
2019-05-20T16:10:32.630Z,5.30
2019-05-20T16:13:03.006Z,5.22
2019-05-20T16:15:33.181Z,6.05
2019-05-20T16:18:03.202Z,6.58
2019-05-20T16:20:32.875Z,5.60
2019-05-20T16:23:02.571Z,5.90
2019-05-20T16:25:32.306Z,6.10
2019-05-20T16:28:01.993Z,5.90
2019-05-20T16:30:31.571Z,6.33
2019-05-20T16:33:01.189Z,6.20
2019-05-20T16:35:31.104Z,5.63
2019-05-20T16:38:02.091Z,5.10
2019-05-20T16:40:31.760Z,5.33
2019-05-20T16:43:01.944Z,4.47
2019-05-20T16:45:31.497Z,5.50
2019-05-20T16:48:01.365Z,5.00
2019-05-20T16:50:32.034Z,5.53
2019-05-20T16:53:01.575Z,5.90
2019-05-20T16:55:31.053Z,6.00
2019-05-20T16:58:00.588Z,5.80
2019-05-20T17:00:32.177Z,6.27
2019-05-20T17:03:01.853Z,5.87
2019-05-20T17:05:31.531Z,6.30
2019-05-20T17:08:01.680Z,6.00
2019-05-20T17:10:31.266Z,5.00
2019-05-20T17:13:01.205Z,5.58
2019-05-20T17:15:30.696Z,5.20
2019-05-20T17:18:00.307Z,6.00
2019-05-20T17:20:29.886Z,5.97
2019-05-20T17:22:59.393Z,5.60
2019-05-20T17:25:28.896Z,6.00
2019-05-20T17:27:58.435Z,5.63
2019-05-20T17:30:27.919Z,6.00
2019-05-20T17:32:57.731Z,4.87
2019-05-20T17:35:27.436Z,5.80
2019-05-20T17:37:56.988Z,5.27
2019-05-20T17:40:26.548Z,6.93
2019-05-20T17:42:56.063Z,6.00
2019-05-20T17:45:25.555Z,7.50
2019-05-20T17:47:55.075Z,6.77
2019-05-20T17:50:24.625Z,6.90
2019-05-20T17:52:54.199Z,6.20
2019-05-20T17:55:23.912Z,6.27
2019-05-20T17:57:53.802Z,7.17
2019-05-20T18:00:23.552Z,6.27
2019-05-20T18:02:53.432Z,6.75
2019-05-20T18:05:22.919Z,7.10
2019-05-20T18:07:52.409Z,7.30
2019-05-20T18:10:24.869Z,6.70
2019-05-20T18:12:54.328Z,8.30
2019-05-20T18:15:23.844Z,7.43
2019-05-20T18:17:53.393Z,7.80
2019-05-20T18:20:24.051Z,7.90
2019-05-20T18:22:53.568Z,7.78
2019-05-20T18:25:23.074Z,8.27
2019-05-20T18:27:52.619Z,8.63
2019-05-20T18:30:22.291Z,9.60
2019-05-20T18:32:51.806Z,8.35
2019-05-20T18:35:21.311Z,7.90
2019-05-20T18:37:50.901Z,8.50
2019-05-20T18:40:20.569Z,8.35
2019-05-20T18:42:50.162Z,8.70
2019-05-20T18:45:19.649Z,8.98
2019-05-20T18:47:49.155Z,8.47
2019-05-20T18:50:18.835Z,8.10
2019-05-20T18:52:48.370Z,9.05
2019-05-20T18:55:17.857Z,9.10
2019-05-20T18:57:47.373Z,7.60
2019-05-20T19:00:17.645Z,8.40
2019-05-20T19:02:47.931Z,8.83
2019-05-20T19:05:17.485Z,8.87
2019-05-20T19:07:47.872Z,8.78
2019-05-20T19:10:17.643Z,8.80
2019-05-20T19:12:47.209Z,8.23
2019-05-20T19:15:17.278Z,9.27
2019-05-20T19:17:46.772Z,8.67
2019-05-20T19:20:16.359Z,9.00
2019-05-20T19:22:47.156Z,9.57
2019-05-20T19:25:16.652Z,10.70
2019-05-20T19:27:46.139Z,9.60
2019-05-20T19:30:15.731Z,8.77
2019-05-20T19:32:45.484Z,8.75
2019-05-20T19:35:15.878Z,10.53
2019-05-20T19:37:45.480Z,9.30
2019-05-20T19:40:15.602Z,10.63
2019-05-20T19:42:45.667Z,9.88
2019-05-20T19:45:15.700Z,10.08
2019-05-20T19:47:46.172Z,9.50
2019-05-20T19:50:15.837Z,9.70
2019-05-20T19:52:46.015Z,9.78
2019-05-20T19:55:18.860Z,9.55
2019-05-20T19:57:47.330Z,10.87
2019-05-20T20:00:17.103Z,10.40
2019-05-20T20:02:46.710Z,12.07
2019-05-20T20:05:16.481Z,9.93
2019-05-20T20:07:46.253Z,10.43
2019-05-20T20:10:15.840Z,10.90
2019-05-20T20:12:45.421Z,10.80
2019-05-20T20:15:19.046Z,10.17
2019-05-20T20:17:48.640Z,10.03
2019-05-20T20:20:18.324Z,11.53
2019-05-20T20:22:47.843Z,10.57
2019-05-20T20:25:17.466Z,10.57
2019-05-20T20:27:47.551Z,11.05
2019-05-20T20:30:17.447Z,10.78
2019-05-20T20:32:47.495Z,10.53
2019-05-20T20:35:17.669Z,9.28
2019-05-20T20:37:47.606Z,9.87
2019-05-20T20:40:17.160Z,9.50
2019-05-20T20:42:48.350Z,9.60
2019-05-20T20:45:17.908Z,9.93
2019-05-20T20:47:47.819Z,10.10
2019-05-20T20:50:18.092Z,10.10
2019-05-20T20:52:47.966Z,9.98
2019-05-20T20:55:18.063Z,9.80
2019-05-20T20:57:48.202Z,9.60
2019-05-20T21:00:18.972Z,9.03
2019-05-20T21:02:53.157Z,8.93
2019-05-20T21:05:19.728Z,8.90
2019-05-20T21:07:51.612Z,8.75
2019-05-20T21:10:20.536Z,9.00
2019-05-20T21:12:50.025Z,9.43
2019-05-20T21:15:19.529Z,8.30
2019-05-20T21:17:49.096Z,8.70
2019-05-20T21:20:18.915Z,10.17
2019-05-20T21:22:49.365Z,8.47
2019-05-20T21:25:18.878Z,9.40
2019-05-20T21:27:48.368Z,9.40
2019-05-20T21:30:18.487Z,8.85
2019-05-20T21:32:48.335Z,9.10
2019-05-20T21:35:19.076Z,9.88
2019-05-20T21:37:49.245Z,10.23
2019-05-20T21:40:19.287Z,8.98
2019-05-20T21:42:49.214Z,8.60
2019-05-20T21:45:19.660Z,9.63
2019-05-20T21:47:49.477Z,8.78
2019-05-20T21:50:19.317Z,9.55
2019-05-20T21:52:49.372Z,10.95
2019-05-20T21:55:19.595Z,10.80
2019-05-20T21:57:49.415Z,10.32
2019-05-20T22:00:24.748Z,10.08
2019-05-20T22:02:55.309Z,9.87
2019-05-20T22:05:24.976Z,9.18
2019-05-20T22:07:54.451Z,9.63
2019-05-20T22:10:23.958Z,9.73
2019-05-20T22:12:53.477Z,9.60
2019-05-20T22:15:22.998Z,9.63
2019-05-20T22:17:52.530Z,9.10
2019-05-20T22:20:22.056Z,9.10
2019-05-20T22:23:10.618Z,10.23
2019-05-20T22:25:40.131Z,9.90
2019-05-20T22:28:12.735Z,10.43
2019-05-20T22:30:40.843Z,9.10
2019-05-20T22:33:10.330Z,10.07
2019-05-20T22:35:40.064Z,11.00
2019-05-20T22:38:09.632Z,11.33
2019-05-20T22:40:39.204Z,9.17
2019-05-20T22:43:08.686Z,10.30
2019-05-20T22:45:38.190Z,10.30
2019-05-20T22:48:07.712Z,9.10
2019-05-20T22:50:37.287Z,9.20
2019-05-20T22:53:06.895Z,10.00
2019-05-20T22:55:36.392Z,9.80
2019-05-20T22:58:05.918Z,9.43
2019-05-20T23:00:35.435Z,10.10
2019-05-20T23:03:05.949Z,9.57
2019-05-20T23:05:35.446Z,8.60
2019-05-20T23:08:04.939Z,9.80
2019-05-20T23:10:34.470Z,9.43
2019-05-20T23:13:04.416Z,9.37
2019-05-20T23:15:35.164Z,8.47
2019-05-20T23:18:04.750Z,9.03
2019-05-20T23:20:34.928Z,9.60
2019-05-20T23:23:04.720Z,8.80
2019-05-20T23:25:35.220Z,9.60
2019-05-20T23:28:05.176Z,9.57
2019-05-20T23:30:34.671Z,9.50
2019-05-20T23:33:04.493Z,10.10
2019-05-20T23:35:34.066Z,9.27
2019-05-20T23:38:04.213Z,9.08
2019-05-20T23:40:33.767Z,9.25
2019-05-20T23:43:04.374Z,9.20
2019-05-20T23:45:33.876Z,8.50
2019-05-20T23:48:04.255Z,8.33
2019-05-20T23:50:34.710Z,9.38
2019-05-20T23:53:04.246Z,8.80
2019-05-20T23:55:33.744Z,8.65
2019-05-20T23:58:03.684Z,9.45
